Time;durP1;ratioP1;P1;durP2;ratioP2;P2;SDS_P1;SDS_P2;PMS_P1;PMS_P2;Temp;Humidity;BMP_temperature;BMP_pressure;BME280_temperature;BME280_humidity;BME280_pressure;Samples;Min_cycle;Max_cycle;Signal;HPM_P1;HPM_P2
2023/05/04 14:45:16;;;;;;;1999.90;999.90;;;19.70;99.90;;;;;;6272485;22;1205116;-65
2023/05/04 14:47:42;;;;;;;1999.90;999.90;;;19.70;99.90;;;;;;6275202;22;20031;-64
2023/05/04 14:50:08;;;;;;;1999.90;999.90;;;19.70;99.90;;;;;;6301735;22;20040;-64
2023/05/04 14:52:33;;;;;;;1999.90;999.90;;;19.70;99.90;;;;;;6302769;22;20353;-65
2023/05/04 14:54:59;;;;;;;1999.90;999.90;;;19.70;99.90;;;;;;6301661;22;20122;-65
2023/05/04 14:57:24;;;;;;;1999.90;999.90;;;19.60;99.90;;;;;;6302745;22;20015;-65
2023/05/04 14:59:51;;;;;;;1999.90;999.90;;;19.60;99.90;;;;;;6302356;22;20015;-65
2023/05/04 15:02:17;;;;;;;1999.90;999.90;;;19.60;99.90;;;;;;6300030;22;20057;-66
2023/05/04 15:04:44;;;;;;;1999.90;999.90;;;19.60;99.90;;;;;;6302238;22;20425;-65
2023/05/04 15:07:09;;;;;;;1999.90;999.90;;;19.60;99.90;;;;;;6300963;22;20110;-65
2023/05/04 15:09:36;;;;;;;1999.90;999.90;;;19.50;99.90;;;;;;6301851;22;20039;-66
2023/05/04 15:12:03;;;;;;;1999.90;999.90;;;19.50;99.90;;;;;;6301474;22;20018;-66
2023/05/04 15:14:29;;;;;;;1999.90;999.90;;;19.50;99.90;;;;;;6302558;22;20378;-66
2023/05/04 15:16:54;;;;;;;1999.90;999.90;;;19.50;99.90;;;;;;6302163;22;20047;-66
2023/05/04 15:19:20;;;;;;;1999.90;999.90;;;19.50;99.90;;;;;;6276191;22;20007;-66
2023/05/04 15:21:46;;;;;;;1999.90;999.90;;;19.50;99.90;;;;;;6305531;22;20492;-66
2023/05/04 15:24:11;;;;;;;1999.90;999.90;;;19.50;99.90;;;;;;6303803;22;20056;-66
2023/05/04 15:26:37;;;;;;;1999.90;999.90;;;19.50;99.90;;;;;;6305338;22;20337;-66
2023/05/04 15:29:02;;;;;;;1999.90;999.90;;;19.50;99.90;;;;;;6275766;22;20011;-65
2023/05/04 15:31:28;;;;;;;1999.90;999.90;;;19.50;99.90;;;;;;6305052;22;20086;-66
2023/05/04 15:33:54;;;;;;;1999.90;999.90;;;19.50;99.90;;;;;;6304563;22;20015;-66
2023/05/04 15:36:20;;;;;;;1999.90;999.90;;;19.40;99.90;;;;;;6303602;22;20384;-65
2023/05/04 15:38:45;;;;;;;1999.90;999.90;;;19.40;99.90;;;;;;6304984;22;20015;-64
2023/05/04 15:41:13;;;;;;;1999.90;999.90;;;19.40;99.90;;;;;;6304294;22;20019;-63
2023/05/04 15:43:38;;;;;;;1999.90;999.90;;;19.40;99.90;;;;;;6304787;22;20106;-63
2023/05/04 15:46:04;;;;;;;1999.90;999.90;;;19.40;99.90;;;;;;6303736;22;20054;-64
2023/05/04 15:48:29;;;;;;;1999.90;999.90;;;19.40;99.90;;;;;;6305375;22;20016;-63
2023/05/04 15:50:55;;;;;;;1999.90;999.90;;;19.40;99.90;;;;;;6304326;22;20302;-64
2023/05/04 15:53:21;;;;;;;1999.90;999.90;;;19.40;99.90;;;;;;6304098;22;20366;-64
2023/05/04 15:55:47;;;;;;;1999.90;999.90;;;19.40;99.90;;;;;;6305201;22;20459;-64
2023/05/04 15:58:12;;;;;;;1999.90;999.90;;;19.40;99.90;;;;;;6303405;22;20333;-64
2023/05/04 16:00:38;;;;;;;1999.90;999.90;;;19.40;99.90;;;;;;6304943;22;20064;-64
2023/05/04 16:03:04;;;;;;;1999.90;999.90;;;19.40;99.90;;;;;;6302676;22;20007;-64
2023/05/04 16:05:30;;;;;;;1999.90;999.90;;;19.40;99.90;;;;;;6305236;22;20102;-64
2023/05/04 16:07:56;;;;;;;1999.90;999.90;;;19.40;99.90;;;;;;6304162;22;20042;-64
2023/05/04 16:10:22;;;;;;;1999.90;999.90;;;19.40;99.90;;;;;;6304529;22;20047;-63
2023/05/04 16:12:47;;;;;;;1999.90;999.90;;;19.40;99.90;;;;;;6304787;22;20015;-64
2023/05/04 16:15:13;;;;;;;1999.90;999.90;;;19.40;99.90;;;;;;6303683;22;20135;-64
2023/05/04 16:17:39;;;;;;;1999.90;999.90;;;19.40;99.90;;;;;;6277411;22;20022;-63
2023/05/04 16:20:06;;;;;;;1999.90;999.90;;;19.30;99.90;;;;;;6303558;22;20011;-64
2023/05/04 16:22:32;;;;;;;1999.90;999.90;;;19.30;99.90;;;;;;6305073;22;20007;-64
2023/05/04 16:24:57;;;;;;;1999.90;999.90;;;19.40;99.90;;;;;;6304035;22;20365;-63
2023/05/04 16:27:25;;;;;;;1999.90;999.90;;;19.40;99.90;;;;;;6304735;22;20077;-64
2023/05/04 16:29:51;;;;;;;1999.90;999.90;;;19.40;99.90;;;;;;6277146;22;20344;-64
2023/05/04 16:32:17;;;;;;;1999.90;999.90;;;19.30;99.90;;;;;;6303701;22;20638;-64
2023/05/04 16:34:43;;;;;;;1999.90;999.90;;;19.40;99.90;;;;;;6304746;22;20033;-64
2023/05/04 16:37:08;;;;;;;1999.90;999.90;;;19.30;99.90;;;;;;6303068;22;20019;-64
2023/05/04 16:39:34;;;;;;;1999.90;999.90;;;19.30;99.90;;;;;;6277062;22;20015;-64
2023/05/04 16:42:01;;;;;;;1999.90;999.90;;;19.30;99.90;;;;;;6303070;22;20086;-63
2023/05/04 16:44:28;;;;;;;1999.90;999.90;;;19.30;99.90;;;;;;6304279;22;20444;-63
2023/05/04 16:46:53;;;;;;;1999.90;999.90;;;19.30;99.90;;;;;;6304305;22;20011;-63
2023/05/04 16:49:22;;;;;;;1999.90;999.90;;;19.30;99.90;;;;;;6304403;22;20060;-63
2023/05/04 16:51:48;;;;;;;1999.90;999.90;;;19.30;99.90;;;;;;6304254;22;20015;-64
2023/05/04 16:54:14;;;;;;;1999.90;999.90;;;19.30;99.90;;;;;;6303167;22;20030;-63
2023/05/04 16:56:39;;;;;;;1999.90;999.90;;;19.30;99.90;;;;;;6304235;22;20007;-64
2023/05/04 16:59:05;;;;;;;1999.90;999.90;;;19.30;99.90;;;;;;6303432;22;20087;-63
2023/05/04 17:01:30;;;;;;;1999.90;999.90;;;19.30;99.90;;;;;;6304682;22;20010;-64
2023/05/04 17:03:57;;;;;;;1999.90;999.90;;;19.30;99.90;;;;;;6303879;22;20452;-64
2023/05/04 17:06:23;;;;;;;1999.90;999.90;;;19.30;99.90;;;;;;6304241;22;20329;-64
2023/05/04 17:08:48;;;;;;;1999.90;999.90;;;19.20;99.90;;;;;;6276464;22;20015;-64
2023/05/04 17:11:14;;;;;;;1999.90;999.90;;;19.30;99.90;;;;;;6303109;22;20015;-64
2023/05/04 17:13:40;;;;;;;1999.90;999.90;;;19.20;99.90;;;;;;6304528;22;20097;-64
2023/05/04 17:16:06;;;;;;;1999.90;999.90;;;19.20;99.90;;;;;;6302997;22;20007;-64
2023/05/04 17:18:32;;;;;;;1999.90;999.90;;;19.20;99.90;;;;;;6304232;22;20015;-64
2023/05/04 17:20:57;;;;;;;1999.90;999.90;;;19.20;99.90;;;;;;6303351;22;20004;-64
2023/05/04 17:23:23;;;;;;;1999.90;999.90;;;19.20;99.90;;;;;;6304776;22;20011;-64
2023/05/04 17:25:49;;;;;;;1999.90;999.90;;;19.20;99.90;;;;;;6303709;22;20011;-64
2023/05/04 17:28:14;;;;;;;1999.90;999.90;;;19.20;99.90;;;;;;6303170;22;20340;-62
2023/05/04 17:30:41;;;;;;;1999.90;999.90;;;19.20;99.90;;;;;;6303877;22;20011;-61
2023/05/04 17:33:07;;;;;;;1999.90;999.90;;;19.20;99.90;;;;;;6302985;22;20007;-63
2023/05/04 17:35:32;;;;;;;1999.90;999.90;;;19.20;99.90;;;;;;6276709;22;20078;-63
2023/05/04 17:37:58;;;;;;;1999.90;999.90;;;19.20;99.90;;;;;;6303048;22;20019;-63
2023/05/04 17:40:24;;;;;;;1999.90;999.90;;;19.20;99.90;;;;;;6303455;22;20022;-63
2023/05/04 17:42:50;;;;;;;1999.90;999.90;;;19.20;99.90;;;;;;6303760;22;20120;-63
2023/05/04 17:45:15;;;;;;;1999.90;999.90;;;19.10;99.90;;;;;;6302596;22;20336;-64
2023/05/04 17:47:43;;;;;;;1999.90;999.90;;;19.10;99.90;;;;;;6276372;22;20022;-63
2023/05/04 17:50:09;;;;;;;1999.90;999.90;;;19.10;99.90;;;;;;6302448;22;20007;-63
2023/05/04 17:52:35;;;;;;;1999.90;999.90;;;19.10;99.90;;;;;;6304080;22;20018;-63
2023/05/04 17:55:01;;;;;;;1999.90;999.90;;;19.10;99.90;;;;;;6302411;22;20008;-63
2023/05/04 17:57:26;;;;;;;1999.90;999.90;;;19.10;99.90;;;;;;6303836;22;20015;-63
2023/05/04 17:59:52;;;;;;;1999.90;999.90;;;19.10;99.90;;;;;;6276622;22;20061;-63
2023/05/04 18:02:18;;;;;;;1999.90;999.90;;;19.10;99.90;;;;;;6275455;22;20022;-63
2023/05/04 18:04:43;;;;;;;1999.90;999.90;;;19.10;99.90;;;;;;6303931;22;20015;-63
2023/05/04 18:07:09;;;;;;;1999.90;999.90;;;19.10;99.90;;;;;;6302803;22;20014;-63
2023/05/04 18:09:35;;;;;;;1999.90;999.90;;;19.10;99.90;;;;;;6303385;22;20011;-63
2023/05/04 18:12:00;;;;;;;1999.90;999.90;;;19.10;99.90;;;;;;6302695;22;20046;-63
2023/05/04 18:14:26;;;;;;;1999.90;999.90;;;19.10;99.90;;;;;;6303743;22;20007;-63
2023/05/04 18:16:51;;;;;;;1999.90;999.90;;;19.00;99.90;;;;;;6303382;22;20034;-63
2023/05/04 18:19:22;;;;;;;1999.90;999.90;;;19.00;99.90;;;;;;6303000;22;20023;-63
2023/05/04 18:21:49;;;;;;;1999.90;999.90;;;19.00;99.90;;;;;;6303818;22;20003;-63
2023/05/04 18:24:15;;;;;;;1999.90;999.90;;;19.00;99.90;;;;;;6301584;22;20008;-63
2023/05/04 18:26:43;;;;;;;1999.90;999.90;;;19.00;99.90;;;;;;6276024;22;20034;-63
2023/05/04 18:29:09;;;;;;;1999.90;999.90;;;19.00;99.90;;;;;;6302745;22;20007;-63
2023/05/04 18:31:35;;;;;;;1999.90;999.90;;;19.00;99.90;;;;;;6303574;22;20459;-63
2023/05/04 18:34:02;;;;;;;1999.90;999.90;;;19.00;99.90;;;;;;6302623;22;20004;-63
2023/05/04 18:36:28;;;;;;;1999.90;999.90;;;19.00;99.90;;;;;;6303735;22;20011;-63
2023/05/04 18:38:57;;;;;;;1999.90;999.90;;;18.90;99.90;;;;;;6301877;22;20015;-63
2023/05/04 18:41:23;;;;;;;1999.90;999.90;;;18.90;99.90;;;;;;6303557;22;20007;-63
2023/05/04 18:43:49;;;;;;;1999.90;999.90;;;18.90;99.90;;;;;;6303661;22;20015;-63
2023/05/04 18:46:15;;;;;;;1999.90;999.90;;;18.90;99.90;;;;;;6302572;22;20029;-63
2023/05/04 18:48:40;;;;;;;1999.90;999.90;;;18.90;99.90;;;;;;6303446;22;20073;-63
2023/05/04 18:51:06;;;;;;;1999.90;999.90;;;18.90;99.90;;;;;;6302590;22;20011;-63
2023/05/04 18:53:32;;;;;;;1999.90;999.90;;;18.90;99.90;;;;;;6302958;22;20015;-63
2023/05/04 18:56:05;;;;;;;1999.90;999.90;;;18.90;99.90;;;;;;6302636;22;20018;-63
2023/05/04 18:58:31;;;;;;;1999.90;999.90;;;18.90;99.90;;;;;;6303374;22;20008;-63
2023/05/04 19:00:57;;;;;;;1999.90;999.90;;;18.80;99.90;;;;;;6303040;22;20018;-63
2023/05/04 19:03:23;;;;;;;1999.90;999.90;;;18.80;99.90;;;;;;6276031;22;20015;-63
2023/05/04 19:05:49;;;;;;;1999.90;999.90;;;18.80;99.90;;;;;;6275727;22;20007;-63
2023/05/04 19:08:14;;;;;;;1999.90;999.90;;;18.80;99.90;;;;;;6301794;22;20498;-63
2023/05/04 19:10:40;;;;;;;1999.90;999.90;;;18.80;99.90;;;;;;6275660;22;20089;-63
2023/05/04 19:13:06;;;;;;;1999.90;999.90;;;18.80;99.90;;;;;;6302071;22;20325;-63
2023/05/04 19:15:35;;;;;;;1999.90;999.90;;;18.80;99.90;;;;;;6303447;22;20462;-64
2023/05/04 19:18:00;;;;;;;1999.90;999.90;;;18.80;99.90;;;;;;6302320;22;20324;-63
2023/05/04 19:20:26;;;;;;;1999.90;999.90;;;18.80;99.90;;;;;;6303484;22;20017;-63
2023/05/04 19:22:53;;;;;;;1999.90;999.90;;;18.80;99.90;;;;;;6302384;22;20014;-63
2023/05/04 19:25:20;;;;;;;1999.90;999.90;;;18.70;99.90;;;;;;6275561;22;20039;-63
2023/05/04 19:27:46;;;;;;;1999.90;999.90;;;18.70;99.90;;;;;;6302987;22;20045;-63
2023/05/04 19:30:11;;;;;;;1999.90;999.90;;;18.70;99.90;;;;;;6302508;22;20364;-63
2023/05/04 19:32:37;;;;;;;1999.90;999.90;;;18.70;99.90;;;;;;6303181;22;20333;-63
2023/05/04 19:35:05;;;;;;;1999.90;999.90;;;18.70;99.90;;;;;;6301047;22;20090;-62
2023/05/04 19:37:31;;;;;;;1999.90;999.90;;;18.70;99.90;;;;;;6274811;22;20041;-63
2023/05/04 19:39:57;;;;;;;1999.90;999.90;;;18.70;99.90;;;;;;6302225;22;20416;-62
2023/05/04 19:42:23;;;;;;;1999.90;999.90;;;18.70;99.90;;;;;;6302088;22;20011;-62
2023/05/04 19:44:48;;;;;;;1999.90;999.90;;;18.70;99.90;;;;;;6302222;22;20344;-63
2023/05/04 19:47:14;;;;;;;1999.90;999.90;;;18.60;99.90;;;;;;6302382;22;20047;-64
2023/05/04 19:49:39;;;;;;;1999.90;999.90;;;18.60;99.90;;;;;;6302057;22;20086;-64
2023/05/04 19:52:05;;;;;;;1999.90;999.90;;;18.60;99.90;;;;;;6301575;22;20411;-64
2023/05/04 19:54:32;;;;;;;1999.90;999.90;;;18.60;99.90;;;;;;6303138;22;20062;-64
2023/05/04 19:56:58;;;;;;;1999.90;999.90;;;18.60;99.90;;;;;;6300947;22;20018;-64
2023/05/04 19:59:24;;;;;;;1999.90;999.90;;;18.60;99.90;;;;;;6274976;22;20011;-63
2023/05/04 20:01:49;;;;;;;1999.90;999.90;;;18.60;99.90;;;;;;6302668;22;20012;-64
2023/05/04 20:04:15;;;;;;;1999.90;999.90;;;18.60;99.90;;;;;;6302120;22;20428;-64
2023/05/04 20:06:41;;;;;;;1999.90;999.90;;;18.60;99.90;;;;;;6303799;22;20011;-64
2023/05/04 20:09:06;;;;;;;1999.90;999.90;;;18.60;99.90;;;;;;6304054;22;20073;-64
2023/05/04 20:11:32;;;;;;;1999.90;999.90;;;18.50;99.90;;;;;;6304492;22;20011;-64
2023/05/04 20:13:58;;;;;;;1999.90;999.90;;;18.50;99.90;;;;;;6303338;22;20011;-64
2023/05/04 20:16:24;;;;;;;1999.90;999.90;;;18.50;99.90;;;;;;6277053;22;20079;-64
2023/05/04 20:18:50;;;;;;;1999.90;999.90;;;18.50;99.90;;;;;;6303852;22;20481;-64
2023/05/04 20:21:15;;;;;;;1999.90;999.90;;;18.50;99.90;;;;;;6303118;22;20008;-64
2023/05/04 20:23:41;;;;;;;1999.90;999.90;;;18.50;99.90;;;;;;6304000;22;20014;-64
2023/05/04 20:26:06;;;;;;;1999.90;999.90;;;18.50;99.90;;;;;;6276213;22;20490;-64
2023/05/04 20:28:32;;;;;;;1999.90;999.90;;;18.50;99.90;;;;;;6277122;22;20015;-64
2023/05/04 20:30:58;;;;;;;1999.90;999.90;;;18.50;99.90;;;;;;6302579;22;20015;-64
2023/05/04 20:33:23;;;;;;;1999.90;999.90;;;18.40;99.90;;;;;;6304143;22;20011;-64
2023/05/04 20:35:49;;;;;;;1999.90;999.90;;;18.40;99.90;;;;;;6304323;22;20463;-64
2023/05/04 20:38:14;;;;;;;1999.90;999.90;;;18.40;99.90;;;;;;6274729;22;20049;-64
2023/05/04 20:40:40;;;;;;;1999.90;999.90;;;18.40;99.90;;;;;;6304020;22;20012;-64
2023/05/04 20:43:06;;;;;;;1999.90;999.90;;;18.40;99.90;;;;;;6303477;22;20371;-64
2023/05/04 20:45:32;;;;;;;1999.90;999.90;;;18.40;99.90;;;;;;6304319;22;20038;-64
2023/05/04 20:47:58;;;;;;;1999.90;999.90;;;18.40;99.90;;;;;;6274881;22;20023;-64
2023/05/04 20:50:24;;;;;;;1999.90;999.90;;;18.40;99.90;;;;;;6304624;22;20083;-64
2023/05/04 20:52:49;;;;;;;1999.90;999.90;;;18.40;99.90;;;;;;6303588;22;20011;-64
2023/05/04 20:55:15;;;;;;;1999.90;999.90;;;18.40;99.90;;;;;;6303144;22;20011;-64
2023/05/04 20:57:41;;;;;;;1999.90;999.90;;;18.40;99.90;;;;;;6303790;22;20003;-64
2023/05/04 21:00:07;;;;;;;1999.90;999.90;;;18.30;99.90;;;;;;6302966;22;20023;-64
2023/05/04 21:02:33;;;;;;;1999.90;999.90;;;18.30;99.90;;;;;;6304193;22;20047;-64
2023/05/04 21:04:59;;;;;;;1999.90;999.90;;;18.30;99.90;;;;;;6300840;22;20007;-63
2023/05/04 21:07:25;;;;;;;1999.90;999.90;;;18.30;99.90;;;;;;6303328;22;20060;-63
2023/05/04 21:09:57;;;;;;;1999.90;999.90;;;18.30;99.90;;;;;;6297018;22;20411;-63
2023/05/04 21:12:23;;;;;;;1999.90;999.90;;;18.30;99.90;;;;;;6303687;22;20030;-63
2023/05/04 21:14:49;;;;;;;1999.90;999.90;;;18.30;99.90;;;;;;6303787;22;20008;-62
2023/05/04 21:17:15;;;;;;;1999.90;999.90;;;18.20;99.90;;;;;;6302583;22;20050;-62
2023/05/04 21:19:40;;;;;;;1999.90;999.90;;;18.30;99.90;;;;;;6303904;22;20043;-62
2023/05/04 21:22:06;;;;;;;1999.90;999.90;;;18.20;99.90;;;;;;6301235;22;20004;-62
2023/05/04 21:24:32;;;;;;;1999.90;999.90;;;18.20;99.90;;;;;;6303821;22;20018;-62
2023/05/04 21:26:58;;;;;;;1999.90;999.90;;;18.20;99.90;;;;;;6302464;22;20037;-62
2023/05/04 21:29:24;;;;;;;1999.90;999.90;;;18.20;99.90;;;;;;6303220;22;20673;-62
2023/05/04 21:31:50;;;;;;;1999.90;999.90;;;18.20;99.90;;;;;;6303150;22;20011;-62
2023/05/04 21:34:15;;;;;;;1999.90;999.90;;;18.20;99.90;;;;;;6302914;22;20015;-62
2023/05/04 21:36:43;;;;;;;1999.90;999.90;;;18.20;99.90;;;;;;6303958;22;20332;-62
2023/05/04 21:39:09;;;;;;;1999.90;999.90;;;18.20;99.90;;;;;;6302519;22;20082;-62
2023/05/04 21:41:35;;;;;;;1999.90;999.90;;;18.20;99.90;;;;;;6303086;22;20082;-62
2023/05/04 21:44:01;;;;;;;1999.90;999.90;;;18.20;99.90;;;;;;6301814;22;20031;-62
2023/05/04 21:46:26;;;;;;;1999.90;999.90;;;18.10;99.90;;;;;;6302782;22;20015;-62
2023/05/04 21:48:52;;;;;;;1999.90;999.90;;;18.10;99.90;;;;;;6303494;22;20223;-62
2023/05/04 21:51:18;;;;;;;1999.90;999.90;;;18.10;99.90;;;;;;6303170;22;20015;-62
2023/05/04 21:53:43;;;;;;;1999.90;999.90;;;18.10;99.90;;;;;;6303708;22;20046;-61
2023/05/04 21:56:10;;;;;;;1999.90;999.90;;;18.10;99.90;;;;;;6301664;22;20025;-62
2023/05/04 21:58:40;;;;;;;1999.90;999.90;;;18.10;99.90;;;;;;6303787;22;20022;-62
2023/05/04 22:01:07;;;;;;;1999.90;999.90;;;18.10;99.90;;;;;;6301781;22;20080;-61
2023/05/04 22:03:33;;;;;;;1999.90;999.90;;;18.10;99.90;;;;;;6303674;22;20003;-62
2023/05/04 22:05:58;;;;;;;1999.90;999.90;;;18.10;99.90;;;;;;6302460;22;20076;-62
2023/05/04 22:08:25;;;;;;;1999.90;999.90;;;18.10;99.90;;;;;;6302430;22;20026;-62
2023/05/04 22:10:52;;;;;;;1999.90;999.90;;;18.10;99.90;;;;;;6303448;22;20337;-62
2023/05/04 22:13:18;;;;;;;1999.90;999.90;;;18.10;99.90;;;;;;6302906;22;20011;-62
2023/05/04 22:15:44;;;;;;;1999.90;999.90;;;18.10;99.90;;;;;;6302877;22;20011;-61
2023/05/04 22:18:10;;;;;;;1999.90;999.90;;;18.10;99.90;;;;;;6301677;22;20455;-61
2023/05/04 22:20:36;;;;;;;1999.90;999.90;;;18.00;99.90;;;;;;6302927;22;20007;-61
2023/05/04 22:23:02;;;;;;;1999.90;999.90;;;18.00;99.90;;;;;;6302739;22;20038;-61
2023/05/04 22:25:28;;;;;;;1999.90;999.90;;;18.00;99.90;;;;;;6303391;22;20012;-61
2023/05/04 22:27:53;;;;;;;1999.90;999.90;;;18.00;99.90;;;;;;6302763;22;20011;-62
2023/05/04 22:30:20;;;;;;;1999.90;999.90;;;18.00;99.90;;;;;;6302501;22;20329;-62
2023/05/04 22:32:46;;;;;;;1999.90;999.90;;;18.00;99.90;;;;;;6276055;22;20043;-62
2023/05/04 22:35:12;;;;;;;1999.90;999.90;;;18.00;99.90;;;;;;6302194;22;20077;-62
2023/05/04 22:37:37;;;;;;;1999.90;999.90;;;18.00;99.90;;;;;;6303311;22;20011;-62
2023/05/04 22:40:04;;;;;;;1999.90;999.90;;;18.00;99.90;;;;;;6301437;22;20026;-62
2023/05/04 22:42:30;;;;;;;1999.90;999.90;;;17.90;99.90;;;;;;6302973;22;20003;-62
2023/05/04 22:44:57;;;;;;;1999.90;999.90;;;18.00;99.90;;;;;;6301382;22;20019;-62
2023/05/04 22:47:23;;;;;;;1999.90;999.90;;;18.00;99.90;;;;;;6302814;22;20015;-62
2023/05/04 22:49:52;;;;;;;1999.90;999.90;;;18.00;99.90;;;;;;6303350;22;20451;-62
2023/05/04 22:52:18;;;;;;;1999.90;999.90;;;17.90;99.90;;;;;;6302332;22;20022;-62
2023/05/04 22:54:43;;;;;;;1999.90;999.90;;;17.90;99.90;;;;;;6302744;22;20082;-62
2023/05/04 22:57:09;;;;;;;1999.90;999.90;;;17.90;99.90;;;;;;6274869;22;20049;-61
2023/05/04 22:59:34;;;;;;;1999.90;999.90;;;17.90;99.90;;;;;;6303237;22;20007;-62
2023/05/04 23:02:00;;;;;;;1999.90;999.90;;;17.90;99.90;;;;;;6302115;22;20052;-62
2023/05/04 23:04:26;;;;;;;1999.90;999.90;;;17.90;99.90;;;;;;6302644;22;20019;-62
2023/05/04 23:06:52;;;;;;;1999.90;999.90;;;17.90;99.90;;;;;;6303175;22;20019;-62
2023/05/04 23:09:19;;;;;;;1999.90;999.90;;;17.90;99.90;;;;;;6302227;22;20015;-62
2023/05/04 23:11:45;;;;;;;1999.90;999.90;;;17.90;99.90;;;;;;6302439;22;20007;-61
2023/05/04 23:14:11;;;;;;;1999.90;999.90;;;17.90;99.90;;;;;;6300784;22;20070;-62
2023/05/04 23:16:36;;;;;;;1999.90;999.90;;;17.90;99.90;;;;;;6303062;22;20015;-62
2023/05/04 23:19:03;;;;;;;1999.90;999.90;;;17.90;99.90;;;;;;6301824;22;20042;-62
2023/05/04 23:21:28;;;;;;;1999.90;999.90;;;17.80;99.90;;;;;;6303160;22;20042;-62
2023/05/04 23:23:54;;;;;;;1999.90;999.90;;;17.80;99.90;;;;;;6301719;22;20015;-62
2023/05/04 23:26:19;;;;;;;1999.90;999.90;;;17.80;99.90;;;;;;6274941;22;20019;-61
2023/05/04 23:28:45;;;;;;;1999.90;999.90;;;17.80;99.90;;;;;;6302748;22;20015;-61
2023/05/04 23:31:11;;;;;;;1999.90;999.90;;;17.80;99.90;;;;;;6302148;22;20015;-62
2023/05/04 23:33:36;;;;;;;1999.90;999.90;;;17.80;99.90;;;;;;6303540;22;20013;-62
2023/05/04 23:36:02;;;;;;;1999.90;999.90;;;17.80;99.90;;;;;;6274653;22;20321;-62
2023/05/04 23:38:28;;;;;;;1999.90;999.90;;;17.80;99.90;;;;;;6275036;22;20459;-62
2023/05/04 23:40:53;;;;;;;1999.90;999.90;;;17.80;99.90;;;;;;6303306;22;20320;-62
2023/05/04 23:43:22;;;;;;;1999.90;999.90;;;17.80;99.90;;;;;;6304318;22;20078;-62
2023/05/04 23:45:48;;;;;;;1999.90;999.90;;;17.80;99.90;;;;;;6304689;22;20007;-62
2023/05/04 23:48:13;;;;;;;1999.90;999.90;;;17.70;99.90;;;;;;6303060;22;20027;-62
2023/05/04 23:50:39;;;;;;;1999.90;999.90;;;17.70;99.90;;;;;;6304137;22;20044;-62
2023/05/04 23:53:04;;;;;;;1999.90;999.90;;;17.70;99.90;;;;;;6303859;22;20015;-62
2023/05/04 23:55:30;;;;;;;1999.90;999.90;;;17.70;99.90;;;;;;6304154;22;20011;-62
2023/05/04 23:57:56;;;;;;;1999.90;999.90;;;17.70;99.90;;;;;;6303242;22;20440;-62
